createdAt,value
2022-09-16T00:00:51.014Z,68.09
2022-09-16T00:01:51.078Z,68.09
2022-09-16T00:02:50.960Z,68.09
2022-09-16T00:03:51.009Z,68.09
2022-09-16T00:04:50.938Z,68.09
2022-09-16T00:05:50.925Z,68.09
2022-09-16T00:06:50.916Z,68.09
2022-09-16T00:07:50.905Z,68.09
2022-09-16T00:08:50.926Z,67.99
2022-09-16T00:09:50.882Z,67.99
2022-09-16T00:10:50.876Z,67.99
2022-09-16T00:11:50.893Z,67.99
2022-09-16T00:12:50.851Z,67.99
2022-09-16T00:13:50.838Z,67.99
2022-09-16T00:14:50.832Z,67.99
2022-09-16T00:15:51.231Z,67.99
2022-09-16T00:16:50.842Z,68.09
2022-09-16T00:17:50.796Z,67.99
2022-09-16T00:18:50.818Z,68.09
2022-09-16T00:19:50.802Z,67.99
2022-09-16T00:20:50.762Z,68.09
2022-09-16T00:21:50.753Z,68.09
2022-09-16T00:22:50.740Z,68.09
2022-09-16T00:23:50.756Z,68.09
2022-09-16T00:24:50.743Z,68.09
2022-09-16T00:25:50.709Z,68.09
2022-09-16T00:26:50.698Z,68.09
2022-09-16T00:27:50.688Z,68.09
2022-09-16T00:28:50.682Z,67.99
2022-09-16T00:29:50.693Z,68.09
2022-09-16T00:30:50.692Z,67.99
2022-09-16T00:31:50.715Z,67.99
2022-09-16T00:32:50.634Z,67.99
2022-09-16T00:33:50.622Z,67.99
2022-09-16T00:34:50.636Z,67.99
2022-09-16T00:35:50.632Z,68.09
2022-09-16T00:36:50.591Z,68.09
2022-09-16T00:37:50.582Z,67.99
2022-09-16T00:38:50.568Z,67.99
2022-09-16T00:39:50.636Z,68.09
2022-09-16T00:40:50.547Z,68.09
2022-09-16T00:41:50.535Z,68.09
2022-09-16T00:42:50.525Z,68.09
2022-09-16T00:43:50.517Z,68.09
2022-09-16T00:44:50.544Z,68.09
2022-09-16T00:45:50.493Z,68.09
2022-09-16T00:46:50.674Z,68.09
2022-09-16T00:47:50.475Z,68.09
2022-09-16T00:48:50.459Z,68.09
2022-09-16T00:49:50.452Z,68.19
2022-09-16T00:50:50.463Z,68.19
2022-09-16T00:51:50.455Z,68.19
2022-09-16T00:52:50.423Z,68.09
2022-09-16T00:53:50.406Z,68.19
2022-09-16T00:54:50.396Z,68.19
2022-09-16T00:55:50.412Z,68.09
2022-09-16T00:56:50.379Z,68.19
2022-09-16T00:57:50.362Z,68.09
2022-09-16T00:58:50.354Z,68.19
2022-09-16T00:59:50.339Z,68.19
2022-09-16T01:00:50.469Z,68.09
2022-09-16T01:01:50.495Z,68.09
2022-09-16T01:02:50.312Z,68.19
2022-09-16T01:03:50.298Z,68.19
2022-09-16T01:04:50.287Z,68.09
2022-09-16T01:05:50.300Z,68.19
2022-09-16T01:06:50.270Z,68.19
2022-09-16T01:07:50.285Z,68.09
2022-09-16T01:08:50.244Z,68.19
2022-09-16T01:09:50.233Z,68.09
2022-09-16T01:10:50.251Z,68.09
2022-09-16T01:11:50.212Z,68.09
2022-09-16T01:12:50.202Z,68.09
2022-09-16T01:13:50.190Z,68.09
2022-09-16T01:14:50.178Z,68.09
2022-09-16T01:15:50.255Z,68.09
2022-09-16T01:16:50.156Z,68.09
2022-09-16T01:17:50.155Z,68.09
2022-09-16T01:18:50.135Z,68.09
2022-09-16T01:19:50.128Z,68.09
2022-09-16T01:20:50.114Z,68.09
2022-09-16T01:21:50.130Z,68.09
2022-09-16T01:22:50.093Z,68.09
2022-09-16T01:23:50.113Z,68.09
2022-09-16T01:24:50.072Z,68.09
2022-09-16T01:25:50.062Z,68.09
2022-09-16T01:26:50.090Z,68.09
2022-09-16T01:27:50.042Z,68.09
2022-09-16T01:28:50.038Z,68.09
2022-09-16T01:29:50.020Z,68.09
2022-09-16T01:30:50.008Z,68.09
2022-09-16T01:31:50.101Z,68.09
2022-09-16T01:32:50.011Z,68.09
2022-09-16T01:33:49.978Z,68.09
2022-09-16T01:34:49.964Z,67.99
2022-09-16T01:35:49.955Z,67.99
2022-09-16T01:36:49.943Z,67.99
2022-09-16T01:37:49.959Z,68.09
2022-09-16T01:38:49.920Z,67.99
2022-09-16T01:39:50.000Z,67.99
2022-09-16T01:40:49.899Z,67.99
2022-09-16T01:41:49.889Z,67.99
2022-09-16T01:42:49.906Z,67.99
2022-09-16T01:43:49.873Z,67.99
2022-09-16T01:44:49.855Z,67.99
2022-09-16T01:45:49.848Z,67.99
2022-09-16T01:46:49.887Z,67.99
2022-09-16T01:47:49.852Z,67.99
2022-09-16T01:48:53.636Z,67.99
2022-09-16T01:49:49.804Z,67.99
2022-09-16T01:50:49.792Z,67.99
2022-09-16T01:51:49.782Z,67.89
2022-09-16T01:52:49.795Z,67.99
2022-09-16T01:53:49.761Z,67.99
2022-09-16T01:54:49.747Z,67.99
2022-09-16T01:55:49.762Z,67.99
2022-09-16T01:56:49.727Z,67.99
2022-09-16T01:57:49.743Z,67.99
2022-09-16T01:58:49.704Z,67.99
2022-09-16T01:59:49.699Z,67.99
2022-09-16T02:00:49.683Z,67.99
2022-09-16T02:01:49.844Z,67.99
2022-09-16T02:02:49.835Z,67.89
2022-09-16T02:03:49.653Z,67.99
2022-09-16T02:04:49.640Z,67.99
2022-09-16T02:05:49.634Z,67.99
2022-09-16T02:06:49.618Z,67.89
2022-09-16T02:07:49.637Z,67.89
2022-09-16T02:08:49.598Z,67.89
2022-09-16T02:09:49.588Z,67.89
2022-09-16T02:10:49.575Z,67.89
2022-09-16T02:11:49.590Z,67.89
2022-09-16T02:12:49.594Z,67.89
2022-09-16T02:13:49.547Z,67.89
2022-09-16T02:14:49.532Z,67.89
2022-09-16T02:15:49.574Z,67.89
2022-09-16T02:16:49.511Z,67.89
2022-09-16T02:17:49.504Z,67.89
2022-09-16T02:18:49.517Z,67.89
2022-09-16T02:19:49.482Z,67.89
2022-09-16T02:20:49.469Z,67.89
2022-09-16T02:21:49.459Z,67.89
2022-09-16T02:22:49.451Z,67.89
2022-09-16T02:23:49.463Z,67.89
2022-09-16T02:24:49.428Z,67.79
2022-09-16T02:25:49.418Z,67.89
2022-09-16T02:26:49.405Z,67.89
2022-09-16T02:27:49.417Z,67.89
2022-09-16T02:28:49.405Z,67.89
2022-09-16T02:29:49.375Z,67.89
2022-09-16T02:30:49.414Z,67.89
2022-09-16T02:31:52.401Z,67.89
2022-09-16T02:32:50.341Z,67.89
2022-09-16T02:33:49.333Z,67.89
2022-09-16T02:34:49.319Z,67.89
2022-09-16T02:35:49.345Z,67.89
2022-09-16T02:36:49.299Z,67.89
2022-09-16T02:37:49.292Z,67.89
2022-09-16T02:38:49.277Z,67.89
2022-09-16T02:39:49.341Z,67.89
2022-09-16T02:40:49.256Z,67.89
2022-09-16T02:41:49.268Z,67.79
2022-09-16T02:42:49.234Z,67.79
2022-09-16T02:43:49.268Z,67.89
2022-09-16T02:44:49.212Z,67.89
2022-09-16T02:45:49.202Z,67.89
2022-09-16T02:46:49.236Z,67.89
2022-09-16T02:47:49.204Z,67.89
2022-09-16T02:48:49.170Z,67.79
2022-09-16T02:49:49.180Z,67.79
2022-09-16T02:50:49.147Z,67.79
2022-09-16T02:51:49.140Z,67.82
2022-09-16T02:52:49.145Z,67.79
2022-09-16T02:53:49.117Z,67.82
2022-09-16T02:54:49.107Z,67.79
2022-09-16T02:55:49.097Z,67.79
2022-09-16T02:56:49.102Z,67.79
2022-09-16T02:57:49.076Z,67.79
2022-09-16T02:58:49.061Z,67.79
2022-09-16T02:59:49.075Z,67.82
2022-09-16T03:00:49.058Z,67.79
2022-09-16T03:01:49.108Z,67.82
2022-09-16T03:02:49.071Z,67.93
2022-09-16T03:03:49.014Z,67.89
2022-09-16T03:04:48.997Z,67.89
2022-09-16T03:05:48.986Z,67.93
2022-09-16T03:06:48.977Z,67.93
2022-09-16T03:07:48.992Z,67.93
2022-09-16T03:08:48.953Z,67.99
2022-09-16T03:09:48.944Z,67.93
2022-09-16T03:10:48.932Z,67.93
2022-09-16T03:11:48.922Z,67.89
2022-09-16T03:12:48.932Z,67.93
2022-09-16T03:13:48.904Z,67.93
2022-09-16T03:14:48.908Z,67.93
2022-09-16T03:15:48.961Z,67.89
2022-09-16T03:16:48.870Z,67.93
2022-09-16T03:17:48.859Z,67.93
2022-09-16T03:18:48.847Z,67.93
2022-09-16T03:19:48.858Z,67.93
2022-09-16T03:20:48.824Z,67.93
2022-09-16T03:21:48.816Z,67.93
2022-09-16T03:22:48.803Z,67.93
2022-09-16T03:23:48.813Z,67.89
2022-09-16T03:24:48.782Z,67.89
2022-09-16T03:25:48.771Z,67.93
2022-09-16T03:26:48.796Z,67.93
2022-09-16T03:27:48.753Z,67.82
2022-09-16T03:28:48.743Z,67.93
2022-09-16T03:29:48.728Z,67.93
2022-09-16T03:30:48.770Z,67.93
2022-09-16T03:31:48.829Z,67.93
2022-09-16T03:32:48.716Z,67.93
2022-09-16T03:33:48.688Z,67.93
2022-09-16T03:34:48.708Z,67.93
2022-09-16T03:35:48.663Z,67.93
2022-09-16T03:36:48.652Z,67.93
2022-09-16T03:37:48.641Z,67.93
2022-09-16T03:38:48.629Z,68.02
2022-09-16T03:39:48.676Z,67.93
2022-09-16T03:40:48.612Z,68.02
2022-09-16T03:41:48.600Z,67.93
2022-09-16T03:42:48.587Z,68.02
2022-09-16T03:43:48.577Z,68.02
2022-09-16T03:44:48.586Z,68.02
2022-09-16T03:45:48.555Z,68.02
2022-09-16T03:46:48.543Z,68.02
2022-09-16T03:47:48.558Z,68.02
2022-09-16T03:48:48.524Z,68.02
2022-09-16T03:49:48.546Z,68.02
2022-09-16T03:50:48.502Z,67.93
2022-09-16T03:51:48.490Z,68.02
2022-09-16T03:52:48.481Z,67.99
2022-09-16T03:53:48.472Z,68.02
2022-09-16T03:54:48.457Z,67.93
2022-09-16T03:55:48.467Z,67.93
2022-09-16T03:56:48.435Z,67.93
2022-09-16T03:57:48.426Z,67.93
2022-09-16T03:58:48.412Z,67.93
2022-09-16T03:59:48.405Z,67.93
2022-09-16T04:00:48.412Z,67.93
2022-09-16T04:01:48.416Z,67.93
2022-09-16T04:02:48.510Z,67.93
2022-09-16T04:03:48.406Z,67.93
2022-09-16T04:04:48.349Z,67.93
2022-09-16T04:05:48.340Z,67.93
2022-09-16T04:06:48.327Z,67.93
2022-09-16T04:07:48.339Z,67.93
2022-09-16T04:08:48.305Z,67.93
2022-09-16T04:09:48.295Z,67.93
2022-09-16T04:10:48.284Z,67.93
2022-09-16T04:11:48.275Z,67.93
2022-09-16T04:12:48.299Z,67.93
2022-09-16T04:13:48.256Z,67.82
2022-09-16T04:14:48.243Z,67.82
2022-09-16T04:15:48.274Z,67.82
2022-09-16T04:16:48.219Z,67.93
2022-09-16T04:17:48.211Z,67.82
2022-09-16T04:18:48.217Z,67.82
2022-09-16T04:19:48.213Z,67.82
2022-09-16T04:20:48.210Z,67.82
2022-09-16T04:21:48.167Z,67.82
2022-09-16T04:22:48.155Z,67.82
2022-09-16T04:23:48.147Z,67.82
2022-09-16T04:24:48.135Z,67.82
2022-09-16T04:25:48.126Z,67.82
2022-09-16T04:26:48.135Z,67.82
2022-09-16T04:27:48.108Z,67.82
2022-09-16T04:28:48.093Z,67.82
2022-09-16T04:29:48.081Z,67.72
2022-09-16T04:30:48.088Z,67.82
2022-09-16T04:31:48.079Z,67.82
2022-09-16T04:32:48.048Z,67.82
2022-09-16T04:33:48.039Z,67.82
2022-09-16T04:34:48.026Z,67.82
2022-09-16T04:35:48.041Z,67.82
2022-09-16T04:36:48.025Z,67.82
2022-09-16T04:37:48.028Z,67.72
2022-09-16T04:38:48.040Z,67.72
2022-09-16T04:39:48.044Z,67.72
2022-09-16T04:40:47.962Z,67.72
2022-09-16T04:41:47.953Z,67.72
2022-09-16T04:42:47.938Z,67.72
2022-09-16T04:43:47.950Z,67.72
2022-09-16T04:44:47.924Z,67.72
2022-09-16T04:45:47.968Z,67.72
2022-09-16T04:46:47.897Z,67.72
2022-09-16T04:47:47.907Z,67.72
2022-09-16T04:48:47.874Z,67.72
2022-09-16T04:49:47.866Z,67.72
2022-09-16T04:50:47.853Z,67.72
2022-09-16T04:51:47.899Z,67.72
2022-09-16T04:52:47.832Z,67.72
2022-09-16T04:53:47.820Z,67.72
2022-09-16T04:54:47.809Z,67.63
2022-09-16T04:55:47.801Z,67.63
2022-09-16T04:56:47.790Z,67.72
2022-09-16T04:57:47.816Z,67.72
2022-09-16T04:58:47.765Z,67.63
2022-09-16T04:59:47.755Z,67.63
2022-09-16T05:00:47.746Z,67.63
2022-09-16T05:01:47.868Z,67.63
2022-09-16T05:02:47.723Z,67.63
2022-09-16T05:03:47.734Z,67.72
2022-09-16T05:04:47.701Z,67.63
2022-09-16T05:05:47.691Z,67.63
2022-09-16T05:06:47.679Z,67.63
2022-09-16T05:07:47.696Z,67.63
2022-09-16T05:08:47.752Z,67.63
2022-09-16T05:09:47.670Z,67.63
2022-09-16T05:10:47.638Z,67.63
2022-09-16T05:11:47.640Z,67.63
2022-09-16T05:12:49.470Z,67.52
2022-09-16T05:13:47.604Z,67.63
2022-09-16T05:14:47.613Z,67.63
2022-09-16T05:15:51.011Z,67.63
2022-09-16T05:16:47.575Z,67.52
2022-09-16T05:17:51.230Z,67.63
2022-09-16T05:18:47.555Z,67.63
2022-09-16T05:19:47.559Z,67.63
2022-09-16T05:20:47.533Z,67.63
2022-09-16T05:21:47.518Z,67.63
2022-09-16T05:22:47.528Z,67.63
2022-09-16T05:23:47.648Z,67.63
2022-09-16T05:24:47.491Z,67.63
2022-09-16T05:25:47.480Z,67.63
2022-09-16T05:26:47.466Z,67.63
2022-09-16T05:27:47.474Z,67.63
2022-09-16T05:28:47.467Z,67.63
2022-09-16T05:29:47.432Z,67.63
2022-09-16T05:30:47.448Z,67.63
2022-09-16T05:31:47.750Z,67.63
2022-09-16T05:32:47.403Z,67.63
2022-09-16T05:33:47.446Z,67.63
2022-09-16T05:34:47.401Z,67.63
2022-09-16T05:35:47.368Z,67.52
2022-09-16T05:36:47.384Z,67.63
2022-09-16T05:37:47.346Z,67.63
2022-09-16T05:39:04.639Z,67.52
2022-09-16T05:39:48.515Z,67.52
2022-09-16T05:40:47.319Z,67.52
2022-09-16T05:41:47.303Z,67.52
2022-09-16T05:42:47.323Z,67.52
2022-09-16T05:43:47.289Z,67.52
2022-09-16T05:44:47.278Z,67.52
2022-09-16T05:45:47.276Z,67.52
2022-09-16T05:46:47.253Z,67.52
2022-09-16T05:47:47.264Z,67.52
2022-09-16T05:48:47.274Z,67.52
2022-09-16T05:49:47.217Z,67.52
2022-09-16T05:50:47.223Z,67.52
2022-09-16T05:51:47.195Z,67.52
2022-09-16T05:52:47.212Z,67.63
2022-09-16T05:53:47.173Z,67.52
2022-09-16T05:54:47.166Z,67.52
2022-09-16T05:55:47.272Z,67.52
2022-09-16T05:56:47.143Z,67.52
2022-09-16T05:57:47.158Z,67.63
2022-09-16T05:58:47.126Z,67.52
2022-09-16T05:59:47.108Z,67.63
2022-09-16T06:00:47.100Z,67.52
2022-09-16T06:01:47.161Z,67.52
2022-09-16T06:02:47.184Z,67.52
2022-09-16T06:03:47.188Z,67.52
2022-09-16T06:04:47.061Z,67.52
2022-09-16T06:05:47.052Z,67.52
2022-09-16T06:06:47.072Z,67.52
2022-09-16T06:07:47.047Z,67.52
2022-09-16T06:08:47.011Z,67.52
2022-09-16T06:09:47.001Z,67.52
2022-09-16T06:10:46.990Z,67.43
2022-09-16T06:11:47.100Z,67.52
2022-09-16T06:12:46.993Z,67.43
2022-09-16T06:13:46.958Z,67.43
2022-09-16T06:14:46.949Z,67.43
2022-09-16T06:15:46.960Z,67.52
2022-09-16T06:16:46.932Z,67.52
2022-09-16T06:17:46.955Z,67.52
2022-09-16T06:18:46.989Z,67.52
2022-09-16T06:19:46.893Z,67.43
2022-09-16T06:20:46.885Z,67.43
2022-09-16T06:21:46.874Z,67.43
2022-09-16T06:22:46.864Z,67.52
2022-09-16T06:23:46.873Z,67.52
2022-09-16T06:24:46.840Z,67.52
2022-09-16T06:25:46.829Z,67.52
2022-09-16T06:26:46.822Z,67.52
2022-09-16T06:27:46.931Z,67.52
2022-09-16T06:28:46.824Z,67.52
2022-09-16T06:29:46.785Z,67.52
2022-09-16T06:30:46.804Z,67.52
2022-09-16T06:31:46.773Z,67.52
2022-09-16T06:32:46.753Z,67.52
2022-09-16T06:33:46.766Z,67.43
2022-09-16T06:34:46.732Z,67.43
2022-09-16T06:35:46.725Z,67.32
2022-09-16T06:36:46.715Z,67.43
2022-09-16T06:37:46.699Z,67.32
2022-09-16T06:38:46.715Z,67.43
2022-09-16T06:39:46.753Z,67.32
2022-09-16T06:40:46.672Z,67.43
2022-09-16T06:41:46.657Z,67.43
2022-09-16T06:42:46.646Z,67.52
2022-09-16T06:43:46.866Z,67.52
2022-09-16T06:44:46.624Z,67.52
2022-09-16T06:45:46.667Z,67.63
2022-09-16T06:46:46.604Z,67.63
2022-09-16T06:47:46.591Z,67.43
2022-09-16T06:48:46.586Z,67.49
2022-09-16T06:49:46.595Z,67.29
2022-09-16T06:50:46.561Z,67.19
2022-09-16T06:51:46.547Z,67.09
2022-09-16T06:52:46.539Z,67.09
2022-09-16T06:53:46.532Z,67.09
2022-09-16T06:54:46.547Z,67.19
2022-09-16T06:55:46.505Z,67.09
2022-09-16T06:56:46.493Z,67.19
2022-09-16T06:57:46.483Z,67.29
2022-09-16T06:58:46.475Z,67.49
2022-09-16T06:59:46.610Z,67.29
2022-09-16T07:00:46.454Z,67.29
2022-09-16T07:01:46.542Z,67.29
2022-09-16T07:02:46.464Z,67.29
2022-09-16T07:03:46.418Z,67.29
2022-09-16T07:04:46.432Z,67.29
2022-09-16T07:05:46.396Z,67.29
2022-09-16T07:07:11.939Z,67.29
2022-09-16T07:07:47.373Z,67.40
2022-09-16T07:08:46.365Z,67.40
2022-09-16T07:09:46.378Z,67.40
2022-09-16T07:10:46.343Z,67.49
2022-09-16T07:11:46.331Z,67.49
2022-09-16T07:12:46.323Z,67.49
2022-09-16T07:13:46.310Z,67.49
2022-09-16T07:14:46.325Z,67.49
2022-09-16T07:16:11.787Z,67.49
2022-09-16T07:16:47.344Z,67.49
2022-09-16T07:17:46.270Z,67.40
2022-09-16T07:18:46.257Z,67.40
2022-09-16T07:19:46.285Z,67.40
2022-09-16T07:20:46.236Z,67.40
2022-09-16T07:21:46.265Z,67.40
2022-09-16T07:22:46.212Z,67.49
2022-09-16T07:23:46.203Z,67.49
2022-09-16T07:24:46.190Z,67.49
2022-09-16T07:25:46.223Z,67.49
2022-09-16T07:26:46.169Z,67.49
2022-09-16T07:27:46.161Z,67.49
2022-09-16T07:28:46.148Z,67.49
2022-09-16T07:29:46.141Z,67.59
2022-09-16T07:30:46.145Z,67.59
2022-09-16T07:31:46.264Z,67.59
2022-09-16T07:32:46.120Z,67.59
2022-09-16T07:33:46.095Z,67.59
2022-09-16T07:34:46.085Z,67.59
2022-09-16T07:35:46.076Z,67.59
2022-09-16T07:36:46.085Z,67.69
2022-09-16T07:37:46.056Z,67.69
2022-09-16T07:38:46.041Z,67.79
2022-09-16T07:39:46.030Z,67.79
2022-09-16T07:40:46.018Z,67.79
2022-09-16T07:41:46.040Z,67.79
2022-09-16T07:42:45.999Z,67.79
2022-09-16T07:43:45.988Z,67.79
2022-09-16T07:44:45.976Z,67.79
2022-09-16T07:45:46.009Z,67.79
2022-09-16T07:46:45.983Z,67.79
2022-09-16T07:47:46.067Z,67.79
2022-09-16T07:48:45.932Z,67.49
2022-09-16T07:49:45.924Z,67.59
2022-09-16T07:50:45.910Z,67.59
2022-09-16T07:51:45.942Z,67.69
2022-09-16T07:53:45.886Z,67.69
2022-09-16T07:54:45.867Z,67.89
2022-09-16T07:55:45.860Z,67.99
2022-09-16T07:56:45.846Z,68.09
2022-09-16T07:57:45.867Z,68.19
2022-09-16T07:58:45.826Z,68.29
2022-09-16T07:59:45.842Z,68.29
2022-09-16T08:00:45.803Z,68.29
2022-09-16T08:01:45.820Z,68.39
2022-09-16T08:02:45.903Z,68.29
2022-09-16T08:03:45.890Z,68.29
2022-09-16T08:04:45.758Z,68.29
2022-09-16T08:05:45.749Z,68.29
2022-09-16T08:06:45.744Z,68.29
2022-09-16T08:07:45.758Z,68.39
2022-09-16T08:08:45.715Z,68.39
2022-09-16T08:09:51.001Z,68.39
2022-09-16T08:10:46.865Z,68.39
2022-09-16T08:11:45.687Z,68.39
2022-09-16T08:12:45.715Z,68.39
2022-09-16T08:13:45.668Z,68.39
2022-09-16T08:14:45.654Z,67.59
2022-09-16T08:15:45.640Z,67.79
2022-09-16T08:16:45.660Z,67.79
2022-09-16T08:17:45.619Z,67.89
2022-09-16T08:18:45.634Z,68.09
2022-09-16T08:19:45.722Z,68.19
2022-09-16T08:20:45.586Z,68.19
2022-09-16T08:21:45.579Z,68.29
2022-09-16T08:22:45.564Z,68.29
2022-09-16T08:23:45.581Z,68.29
2022-09-16T08:24:45.546Z,67.59
2022-09-16T08:25:45.534Z,67.69
2022-09-16T08:26:45.545Z,67.59
2022-09-16T08:27:45.515Z,67.69
2022-09-16T08:29:07.343Z,67.69
2022-09-16T08:29:46.490Z,67.59
2022-09-16T08:30:46.645Z,67.59
2022-09-16T08:31:45.499Z,67.59
2022-09-16T08:32:45.457Z,67.69
2022-09-16T08:33:45.474Z,67.79
2022-09-16T08:34:45.447Z,67.79
2022-09-16T08:35:45.546Z,67.69
2022-09-16T08:36:45.413Z,67.69
2022-09-16T08:37:49.499Z,67.69
2022-09-16T08:38:45.392Z,67.79
2022-09-16T08:39:45.411Z,67.79
2022-09-16T08:40:45.372Z,67.89
2022-09-16T08:41:45.361Z,67.89
2022-09-16T08:42:45.356Z,67.89
2022-09-16T08:43:45.339Z,67.79
2022-09-16T08:44:45.353Z,67.79
2022-09-16T08:45:45.384Z,67.79
2022-09-16T08:46:45.306Z,67.79
2022-09-16T08:47:45.296Z,67.79
2022-09-16T08:48:45.287Z,67.79
2022-09-16T08:49:46.622Z,67.89
2022-09-16T08:50:45.263Z,67.89
2022-09-16T08:51:45.388Z,67.99
2022-09-16T08:52:45.240Z,67.99
2022-09-16T08:53:45.236Z,67.99
2022-09-16T08:54:45.262Z,67.99
2022-09-16T08:55:45.210Z,67.89
2022-09-16T08:56:45.198Z,67.89
2022-09-16T08:57:45.188Z,67.89
2022-09-16T08:58:45.177Z,67.99
2022-09-16T08:59:45.195Z,67.99
2022-09-16T09:00:45.261Z,67.99
2022-09-16T09:01:45.817Z,67.99
2022-09-16T09:02:45.263Z,67.89
2022-09-16T09:03:45.175Z,67.89
2022-09-16T09:04:45.139Z,67.89
2022-09-16T09:05:45.102Z,67.89
2022-09-16T09:06:45.091Z,67.89
2022-09-16T09:07:45.222Z,67.89
2022-09-16T09:08:45.070Z,67.89
2022-09-16T09:09:45.088Z,67.89
2022-09-16T09:10:45.050Z,67.89
2022-09-16T09:11:45.044Z,67.99
2022-09-16T09:12:45.738Z,67.99
2022-09-16T09:13:45.017Z,67.99
2022-09-16T09:14:45.048Z,67.99
2022-09-16T09:15:44.995Z,67.99
2022-09-16T09:16:45.041Z,67.79
2022-09-16T09:17:48.562Z,67.79
2022-09-16T09:18:44.964Z,67.79
2022-09-16T09:19:44.951Z,67.89
2022-09-16T09:20:44.966Z,67.89
2022-09-16T09:21:44.934Z,67.89
2022-09-16T09:22:45.994Z,67.89
2022-09-16T09:23:45.157Z,67.89
2022-09-16T09:24:44.900Z,67.99
2022-09-16T09:25:44.916Z,67.89
2022-09-16T09:26:44.877Z,67.99
2022-09-16T09:27:44.867Z,67.99
2022-09-16T09:28:44.857Z,67.99
2022-09-16T09:29:44.844Z,67.99
2022-09-16T09:30:44.865Z,67.99
2022-09-16T09:31:44.878Z,67.99
2022-09-16T09:32:49.532Z,67.99
2022-09-16T09:33:47.071Z,67.99
2022-09-16T09:34:44.793Z,67.89
2022-09-16T09:35:44.820Z,67.99
2022-09-16T09:36:44.772Z,67.99
2022-09-16T09:37:44.763Z,67.69
2022-09-16T09:38:44.841Z,67.79
2022-09-16T09:39:44.865Z,67.69
2022-09-16T09:40:44.734Z,67.79
2022-09-16T09:41:44.740Z,67.79
2022-09-16T09:42:44.704Z,67.99
2022-09-16T09:43:44.702Z,67.99
2022-09-16T09:44:44.693Z,67.99
2022-09-16T09:45:44.768Z,68.09
2022-09-16T09:46:44.689Z,68.29
2022-09-16T09:47:44.649Z,68.09
2022-09-16T09:48:44.641Z,67.99
2022-09-16T09:49:44.628Z,67.99
2022-09-16T09:50:44.620Z,67.89
2022-09-16T09:51:44.630Z,67.79
2022-09-16T09:52:44.596Z,67.79
2022-09-16T09:53:44.583Z,67.89
2022-09-16T09:54:44.575Z,67.89
2022-09-16T09:55:44.695Z,67.69
2022-09-16T09:56:44.597Z,67.79
2022-09-16T09:57:44.541Z,67.89
2022-09-16T09:58:44.533Z,68.09
2022-09-16T09:59:44.519Z,67.99
2022-09-16T10:00:44.556Z,68.19
2022-09-16T10:01:44.525Z,68.39
2022-09-16T10:02:48.821Z,68.49
2022-09-16T10:03:45.478Z,68.49
2022-09-16T10:04:44.467Z,68.49
2022-09-16T10:05:44.459Z,68.39
2022-09-16T10:06:44.445Z,68.29
2022-09-16T10:07:44.459Z,68.39
2022-09-16T10:08:44.481Z,68.49
2022-09-16T10:09:44.434Z,68.19
2022-09-16T10:10:44.401Z,68.29
2022-09-16T10:11:44.519Z,68.36
2022-09-16T10:12:44.406Z,68.39
2022-09-16T10:13:44.367Z,68.29
2022-09-16T10:14:44.369Z,68.36
2022-09-16T10:15:44.345Z,68.46
2022-09-16T10:16:44.369Z,68.46
2022-09-16T10:17:44.353Z,68.46
2022-09-16T10:18:44.313Z,68.16
2022-09-16T10:19:44.302Z,68.06
2022-09-16T10:20:44.297Z,67.86
2022-09-16T10:21:44.306Z,67.89
2022-09-16T10:22:44.298Z,67.76
2022-09-16T10:23:44.294Z,67.89
2022-09-16T10:24:44.253Z,67.89
2022-09-16T10:25:44.238Z,67.89
2022-09-16T10:26:44.229Z,67.99
2022-09-16T10:27:44.390Z,67.99
2022-09-16T10:28:44.206Z,67.99
2022-09-16T10:29:44.196Z,67.99
2022-09-16T10:30:44.184Z,67.99
2022-09-16T10:31:44.235Z,68.09
2022-09-16T10:32:44.163Z,68.09
2022-09-16T10:33:44.215Z,67.99
2022-09-16T10:34:44.146Z,67.99
2022-09-16T10:35:44.129Z,68.09
2022-09-16T10:36:44.122Z,68.09
2022-09-16T10:37:44.110Z,67.99
2022-09-16T10:38:44.135Z,67.89
2022-09-16T10:39:44.088Z,67.99
2022-09-16T10:40:44.079Z,67.79
2022-09-16T10:41:44.065Z,67.79
2022-09-16T10:42:44.069Z,67.79
2022-09-16T10:43:44.221Z,67.79
2022-09-16T10:44:44.035Z,67.79
2022-09-16T10:45:44.023Z,67.89
2022-09-16T10:46:44.014Z,67.89
2022-09-16T10:48:44.086Z,67.99
2022-09-16T10:49:44.042Z,67.99
2022-09-16T10:50:43.983Z,67.99
2022-09-16T10:51:43.991Z,67.99
2022-09-16T10:52:43.951Z,67.99
2022-09-16T10:53:44.936Z,67.99
2022-09-16T10:54:43.958Z,67.99
2022-09-16T10:55:43.917Z,67.89
2022-09-16T10:56:43.906Z,67.89
2022-09-16T10:57:43.893Z,67.89
2022-09-16T10:58:43.885Z,67.79
2022-09-16T10:59:44.031Z,67.79
2022-09-16T11:00:45.886Z,67.79
2022-09-16T11:01:46.552Z,67.79
2022-09-16T11:02:43.842Z,67.69
2022-09-16T11:03:43.828Z,67.69
2022-09-16T11:04:43.843Z,67.69
2022-09-16T11:05:43.806Z,67.49
2022-09-16T11:06:43.798Z,67.40
2022-09-16T11:07:43.784Z,67.49
2022-09-16T11:08:43.774Z,67.59
2022-09-16T11:09:43.788Z,67.59
2022-09-16T11:10:43.751Z,67.40
2022-09-16T11:11:43.742Z,67.29
2022-09-16T11:12:43.733Z,67.19
2022-09-16T11:13:43.820Z,67.09
2022-09-16T11:14:43.737Z,67.09
2022-09-16T11:15:43.833Z,66.89
2022-09-16T11:16:43.790Z,66.59
2022-09-16T11:17:43.676Z,66.39
2022-09-16T11:18:43.668Z,66.69
2022-09-16T11:19:43.685Z,66.79
2022-09-16T11:20:43.647Z,66.79
2022-09-16T11:21:43.635Z,66.39
2022-09-16T11:22:43.624Z,66.59
2022-09-16T11:23:43.612Z,66.69
2022-09-16T11:24:43.644Z,66.69
2022-09-16T11:25:43.590Z,66.69
2022-09-16T11:26:43.584Z,66.79
2022-09-16T11:27:43.571Z,66.79
2022-09-16T11:28:43.560Z,66.79
2022-09-16T11:29:43.564Z,66.69
2022-09-16T11:30:43.563Z,66.59
2022-09-16T11:31:43.714Z,66.49
2022-09-16T11:32:43.690Z,66.49
2022-09-16T11:33:43.513Z,66.59
2022-09-16T11:34:43.493Z,66.59
2022-09-16T11:35:43.507Z,66.69
2022-09-16T11:36:43.474Z,66.79
2022-09-16T11:37:43.459Z,66.49
2022-09-16T11:38:46.050Z,66.49
2022-09-16T11:39:43.438Z,66.19
2022-09-16T11:40:43.468Z,66.19
2022-09-16T11:41:43.419Z,66.09
2022-09-16T11:42:43.412Z,66.09
2022-09-16T11:43:43.396Z,66.19
2022-09-16T11:44:43.384Z,66.19
2022-09-16T11:45:43.373Z,66.39
2022-09-16T11:46:43.472Z,66.39
2022-09-16T11:47:43.485Z,66.39
2022-09-16T11:48:43.344Z,66.29
2022-09-16T11:49:43.330Z,66.29
2022-09-16T11:50:43.323Z,66.29
2022-09-16T11:51:43.336Z,66.29
2022-09-16T11:52:43.302Z,66.19
2022-09-16T11:53:44.812Z,66.29
2022-09-16T11:54:43.277Z,66.09
2022-09-16T11:55:43.271Z,65.99
2022-09-16T11:56:43.283Z,65.89
2022-09-16T11:57:43.247Z,65.79
2022-09-16T11:58:43.248Z,65.79
2022-09-16T11:59:43.222Z,65.69
2022-09-16T12:00:43.214Z,65.79
2022-09-16T12:01:43.292Z,65.69
2022-09-16T12:02:43.243Z,65.59
2022-09-16T12:03:43.311Z,65.79
2022-09-16T12:04:43.169Z,65.89
2022-09-16T12:05:43.159Z,65.99
2022-09-16T12:06:43.173Z,65.99
2022-09-16T12:07:43.136Z,66.09
2022-09-16T12:08:43.127Z,65.19
2022-09-16T12:09:43.136Z,65.29
2022-09-16T12:10:43.109Z,65.39
2022-09-16T12:11:43.121Z,65.29
2022-09-16T12:12:43.089Z,65.49
2022-09-16T12:13:43.070Z,65.59
2022-09-16T12:14:43.063Z,65.59
2022-09-16T12:15:43.051Z,65.69
2022-09-16T12:16:43.079Z,65.69
2022-09-16T12:17:43.030Z,65.69
2022-09-16T12:18:43.022Z,65.49
2022-09-16T12:19:43.135Z,65.39
2022-09-16T12:20:42.999Z,65.59
2022-09-16T12:21:42.985Z,65.49
2022-09-16T12:22:43.004Z,65.39
2022-09-16T12:23:42.962Z,65.49
2022-09-16T12:24:42.952Z,65.49
2022-09-16T12:25:46.069Z,65.69
2022-09-16T12:26:42.931Z,65.59
2022-09-16T12:27:42.947Z,65.69
2022-09-16T12:28:42.911Z,65.59
2022-09-16T12:29:42.900Z,65.59
2022-09-16T12:30:42.890Z,65.59
2022-09-16T12:31:42.928Z,65.49
2022-09-16T12:32:42.893Z,65.29
2022-09-16T12:33:42.855Z,65.29
2022-09-16T12:34:42.846Z,65.49
2022-09-16T12:35:42.985Z,65.49
2022-09-16T12:36:42.825Z,65.39
2022-09-16T12:37:42.838Z,65.49
2022-09-16T12:38:42.800Z,65.49
2022-09-16T12:39:42.792Z,65.49
2022-09-16T12:40:42.781Z,65.39
2022-09-16T12:41:42.767Z,65.39
2022-09-16T12:42:46.005Z,65.39
2022-09-16T12:43:42.746Z,65.39
2022-09-16T12:44:42.744Z,65.59
2022-09-16T12:45:42.724Z,65.59
2022-09-16T12:46:42.790Z,65.69
2022-09-16T12:47:42.732Z,65.69
2022-09-16T12:48:42.692Z,65.69
2022-09-16T12:49:42.689Z,65.79
2022-09-16T12:50:42.671Z,65.79
2022-09-16T12:51:44.978Z,65.79
2022-09-16T12:52:43.679Z,65.79
2022-09-16T12:53:42.639Z,65.79
2022-09-16T12:55:04.158Z,65.89